createdAt,value
2022-08-12T00:00:54.431Z,21.19
2022-08-12T00:05:16.814Z,21.14
2022-08-12T00:09:38.164Z,21.05
2022-08-12T00:13:58.989Z,20.95
2022-08-12T00:18:20.325Z,20.91
2022-08-12T00:22:42.601Z,20.84
2022-08-12T00:27:05.815Z,20.80
2022-08-12T00:31:26.643Z,20.76
2022-08-12T00:35:46.940Z,20.70
2022-08-12T00:40:11.394Z,20.68
2022-08-12T00:44:16.966Z,20.60
2022-08-12T00:48:20.678Z,20.53
2022-08-12T00:52:24.425Z,20.43
2022-08-12T00:56:29.778Z,20.35
2022-08-12T01:00:33.316Z,20.28
2022-08-12T01:04:58.166Z,20.24
2022-08-12T01:09:18.896Z,20.23
2022-08-12T01:13:24.154Z,20.20
2022-08-12T01:17:27.442Z,20.18
2022-08-12T01:21:50.789Z,20.14
2022-08-12T01:25:57.174Z,20.10
2022-08-12T01:30:03.887Z,20.07
2022-08-12T01:34:35.946Z,20.03
2022-08-12T01:38:34.856Z,19.96
2022-08-12T01:42:46.188Z,19.88
2022-08-12T01:46:59.737Z,19.82
2022-08-12T01:51:07.989Z,19.74
2022-08-12T01:55:12.491Z,19.69
2022-08-12T01:59:38.760Z,19.65
2022-08-12T02:04:22.003Z,19.60
2022-08-12T02:08:52.492Z,19.55
2022-08-12T02:13:07.586Z,19.52
2022-08-12T02:17:54.566Z,19.49
2022-08-12T02:22:04.728Z,19.45
2022-08-12T02:26:10.000Z,19.41
2022-08-12T02:30:16.017Z,19.37
2022-08-12T02:34:23.048Z,19.30
2022-08-12T02:38:29.073Z,19.26
2022-08-12T02:42:35.097Z,19.24
2022-08-12T02:46:40.554Z,19.18
2022-08-12T02:50:48.058Z,19.14
2022-08-12T02:54:58.378Z,19.14
2022-08-12T02:59:02.701Z,19.12
2022-08-12T03:03:08.356Z,19.09
2022-08-12T03:07:19.087Z,19.06
2022-08-12T03:11:28.393Z,19.02
2022-08-12T03:15:34.113Z,18.98
2022-08-12T03:20:08.730Z,18.97
2022-08-12T03:24:05.901Z,18.93
2022-08-12T03:28:23.628Z,18.88
2022-08-12T03:32:36.163Z,18.84
2022-08-12T03:36:42.133Z,18.81
2022-08-12T03:41:15.354Z,18.76
2022-08-12T03:45:51.830Z,18.72
2022-08-12T03:50:14.056Z,18.69
2022-08-12T03:54:35.273Z,18.68
2022-08-12T03:58:59.809Z,18.71
2022-08-12T04:03:03.116Z,18.73
2022-08-12T04:07:08.977Z,18.74
2022-08-12T04:11:32.187Z,18.76
2022-08-12T04:15:36.861Z,18.76
2022-08-12T04:19:40.987Z,18.77
2022-08-12T04:23:48.373Z,18.76
2022-08-12T04:27:52.109Z,18.73
2022-08-12T04:31:56.862Z,18.76
2022-08-12T04:35:59.951Z,18.80
2022-08-12T04:40:04.768Z,18.83
2022-08-12T04:44:08.952Z,18.83
2022-08-12T04:48:13.491Z,18.82
2022-08-12T04:52:19.793Z,18.81
2022-08-12T04:56:22.869Z,18.79
2022-08-12T05:00:27.556Z,18.84
2022-08-12T05:04:32.550Z,18.83
2022-08-12T05:08:36.868Z,18.80
2022-08-12T05:12:44.962Z,18.74
2022-08-12T05:16:48.057Z,18.72
2022-08-12T05:20:54.647Z,18.71
2022-08-12T05:24:57.719Z,18.70
2022-08-12T05:29:00.804Z,18.72
2022-08-12T05:33:06.357Z,18.77
2022-08-12T05:37:10.761Z,18.86
2022-08-12T05:41:20.672Z,18.96
2022-08-12T05:45:24.005Z,19.09
2022-08-12T05:49:27.175Z,19.24
2022-08-12T05:53:31.738Z,19.36
2022-08-12T05:57:34.835Z,19.60
2022-08-12T06:02:12.762Z,19.80
2022-08-12T06:06:03.525Z,20.03
2022-08-12T06:10:08.885Z,20.23
2022-08-12T06:14:12.347Z,20.49
2022-08-12T06:18:16.215Z,20.61
2022-08-12T06:22:19.614Z,20.78
2022-08-12T06:26:24.131Z,20.97
2022-08-12T06:30:36.769Z,21.13
2022-08-12T06:35:23.226Z,21.29
2022-08-12T06:39:04.771Z,21.40
2022-08-12T06:43:19.139Z,21.57
2022-08-12T06:47:22.235Z,21.73
2022-08-12T06:51:25.831Z,21.93
2022-08-12T06:55:30.228Z,22.05
2022-08-12T06:59:35.797Z,22.11
2022-08-12T07:03:39.343Z,22.09
2022-08-12T07:07:42.513Z,22.03
2022-08-12T07:11:50.758Z,21.99
2022-08-12T07:15:56.712Z,22.14
2022-08-12T07:20:04.274Z,22.38
2022-08-12T07:24:08.085Z,22.55
2022-08-12T07:28:16.790Z,22.76
2022-08-12T07:32:25.639Z,22.90
2022-08-12T07:36:33.968Z,23.07
2022-08-12T07:40:37.130Z,23.22
2022-08-12T07:44:40.252Z,23.39
2022-08-12T07:48:46.339Z,23.57
2022-08-12T07:52:49.823Z,23.79
2022-08-12T07:56:53.078Z,23.95
2022-08-12T08:00:59.714Z,24.16
2022-08-12T08:05:06.059Z,24.27
2022-08-12T08:09:11.247Z,24.31
2022-08-12T08:13:15.391Z,24.50
2022-08-12T08:17:18.585Z,24.68
2022-08-12T08:21:24.404Z,24.74
2022-08-12T08:25:36.529Z,24.79
2022-08-12T08:29:41.146Z,24.94
2022-08-12T08:34:05.039Z,25.12
2022-08-12T08:38:14.118Z,25.18
2022-08-12T08:42:40.569Z,25.27
2022-08-12T08:46:44.609Z,25.28
2022-08-12T08:50:47.856Z,25.42
2022-08-12T08:55:10.606Z,25.59
2022-08-12T08:59:14.661Z,25.72
2022-08-12T09:05:12.800Z,25.85
2022-08-12T09:12:30.084Z,26.05
2022-08-12T09:16:36.694Z,26.14
2022-08-12T09:20:44.229Z,26.20
2022-08-12T09:24:53.917Z,26.35
2022-08-12T09:29:00.759Z,26.36
2022-08-12T09:33:15.026Z,26.43
2022-08-12T09:37:28.379Z,26.53
2022-08-12T09:42:40.804Z,26.64
2022-08-12T09:46:36.021Z,26.73
2022-08-12T09:50:41.917Z,26.81
2022-08-12T09:54:59.823Z,26.86
2022-08-12T09:59:10.028Z,27.01
2022-08-12T10:03:31.272Z,27.13
2022-08-12T10:07:40.691Z,27.18
2022-08-12T10:12:11.922Z,27.28
2022-08-12T10:16:22.557Z,27.30
2022-08-12T10:20:27.442Z,27.43
2022-08-12T10:24:30.558Z,27.52
2022-08-12T10:28:56.292Z,27.65
2022-08-12T10:33:18.834Z,27.76
2022-08-12T10:38:35.506Z,27.81
2022-08-12T10:42:04.725Z,27.90
2022-08-12T10:46:09.126Z,28.09
2022-08-12T10:50:29.514Z,28.16
2022-08-12T10:54:43.088Z,28.17
2022-08-12T10:58:47.066Z,28.26
2022-08-12T11:04:27.680Z,28.31
2022-08-12T11:08:33.577Z,28.42
2022-08-12T11:12:36.982Z,28.45
2022-08-12T11:16:19.437Z,28.48
2022-08-12T11:20:29.080Z,28.58
2022-08-12T11:24:34.870Z,28.68
2022-08-12T11:28:40.849Z,28.77
2022-08-12T11:32:43.929Z,28.79
2022-08-12T11:36:56.243Z,28.81
2022-08-12T11:41:04.092Z,28.89
2022-08-12T11:45:10.316Z,29.00
2022-08-12T11:49:13.894Z,29.06
2022-08-12T11:53:59.497Z,29.18
2022-08-12T11:58:16.299Z,29.28
2022-08-12T12:02:23.024Z,29.40
2022-08-12T12:06:26.306Z,29.48
2022-08-12T12:10:29.567Z,29.57
2022-08-12T12:14:39.129Z,29.55
2022-08-12T12:18:43.876Z,29.67
2022-08-12T12:22:46.958Z,29.64
2022-08-12T12:27:00.798Z,29.54
2022-08-12T12:31:04.391Z,29.54
2022-08-12T12:35:14.150Z,29.57
2022-08-12T12:39:54.905Z,29.63
2022-08-12T12:43:56.629Z,29.55
2022-08-12T12:48:09.714Z,29.61
2022-08-12T12:52:18.489Z,29.71
2022-08-12T12:56:33.894Z,29.77
2022-08-12T13:00:42.544Z,29.83
2022-08-12T13:04:54.511Z,29.83
2022-08-12T13:09:02.539Z,29.84
2022-08-12T13:14:06.486Z,29.97
2022-08-12T13:18:01.949Z,29.94
2022-08-12T13:22:14.472Z,29.91
2022-08-12T13:26:22.643Z,29.84
2022-08-12T13:30:28.164Z,29.88
2022-08-12T13:34:35.655Z,29.84
2022-08-12T13:38:41.334Z,29.87
2022-08-12T13:42:50.961Z,29.95
2022-08-12T13:46:58.878Z,29.92
2022-08-12T13:51:04.410Z,29.95
2022-08-12T13:55:08.222Z,30.00
2022-08-12T13:59:13.522Z,29.98
2022-08-12T14:03:17.849Z,29.89
2022-08-12T14:07:20.935Z,29.90
2022-08-12T14:11:27.973Z,29.87
2022-08-12T14:15:38.502Z,29.76
2022-08-12T14:20:01.896Z,29.64
2022-08-12T14:24:09.570Z,29.49
2022-08-12T14:28:16.327Z,29.45
2022-08-12T14:32:20.900Z,29.37
2022-08-12T14:36:27.595Z,29.25
2022-08-12T14:40:31.449Z,29.18
2022-08-12T14:44:57.621Z,29.18
2022-08-12T14:49:27.501Z,29.22
2022-08-12T14:57:56.592Z,29.05
2022-08-12T15:02:00.527Z,29.07
2022-08-12T15:06:39.223Z,29.08
2022-08-12T15:10:34.108Z,29.05
2022-08-12T15:14:38.250Z,29.02
2022-08-12T15:18:55.528Z,28.97
2022-08-12T15:23:03.887Z,28.88
2022-08-12T15:27:09.435Z,28.82
2022-08-12T15:31:27.743Z,28.78
2022-08-12T15:35:49.928Z,28.76
2022-08-12T15:40:00.709Z,28.75
2022-08-12T15:44:37.309Z,28.72
2022-08-12T15:48:30.418Z,28.69
2022-08-12T15:52:33.711Z,28.66
2022-08-12T15:56:38.383Z,28.67
2022-08-12T16:00:42.311Z,28.67
2022-08-12T16:04:50.413Z,28.66
2022-08-12T16:08:54.348Z,28.64
2022-08-12T16:13:04.662Z,28.61
2022-08-12T16:17:15.515Z,28.58
2022-08-12T16:21:51.258Z,28.50
2022-08-12T16:26:05.326Z,28.46
2022-08-12T16:30:14.015Z,28.38
2022-08-12T16:34:26.087Z,28.35
2022-08-12T16:38:41.138Z,28.31
2022-08-12T16:42:53.777Z,28.29
2022-08-12T16:47:06.542Z,28.22
2022-08-12T16:51:12.331Z,28.14
2022-08-12T16:55:15.549Z,28.09
2022-08-12T16:59:21.871Z,28.06
2022-08-12T17:03:28.962Z,28.02
2022-08-12T17:07:43.104Z,27.96
2022-08-12T17:11:49.715Z,27.90
2022-08-12T17:16:04.926Z,27.83
2022-08-12T17:20:34.547Z,27.73
2022-08-12T17:24:36.793Z,27.65
2022-08-12T17:28:45.539Z,27.59
2022-08-12T17:32:57.169Z,27.55
2022-08-12T17:37:05.240Z,27.52
2022-08-12T17:41:22.524Z,27.43
2022-08-12T17:45:32.837Z,27.35
2022-08-12T17:50:03.150Z,27.26
2022-08-12T17:54:12.463Z,27.20
2022-08-12T17:58:17.596Z,27.09
2022-08-12T18:02:29.881Z,27.00
2022-08-12T18:06:34.784Z,26.91
2022-08-12T18:10:58.119Z,26.84
2022-08-12T18:15:27.014Z,26.78
2022-08-12T18:20:05.809Z,26.70
2022-08-12T18:24:05.421Z,26.58
2022-08-12T18:28:27.490Z,26.46
2022-08-12T18:32:58.254Z,26.39
2022-08-12T18:37:27.021Z,26.30
2022-08-12T18:41:33.521Z,26.23
2022-08-12T18:45:47.027Z,26.17
2022-08-12T18:50:00.036Z,26.10
2022-08-12T18:54:06.044Z,26.05
2022-08-12T18:58:14.028Z,25.99
2022-08-12T19:02:25.442Z,25.96
2022-08-12T19:06:36.473Z,25.95
2022-08-12T19:10:50.188Z,25.93
2022-08-12T19:15:04.288Z,25.90
2022-08-12T19:19:11.182Z,25.86
2022-08-12T19:23:21.274Z,25.82
2022-08-12T19:27:25.926Z,25.78
2022-08-12T19:31:56.443Z,25.74
2022-08-12T19:36:07.830Z,25.69
2022-08-12T19:40:32.928Z,25.61
2022-08-12T19:44:38.036Z,25.55
2022-08-12T19:48:45.043Z,25.53
2022-08-12T19:53:03.839Z,25.48
2022-08-12T19:57:11.399Z,25.42
2022-08-12T20:01:17.445Z,25.36
2022-08-12T20:06:06.289Z,25.28
2022-08-12T20:09:47.414Z,25.21
2022-08-12T20:14:01.506Z,25.15
2022-08-12T20:18:07.681Z,25.11
2022-08-12T20:22:31.695Z,25.08
2022-08-12T20:26:38.463Z,25.04
2022-08-12T20:30:59.633Z,25.00
2022-08-12T20:35:10.017Z,24.96
2022-08-12T20:39:17.866Z,24.91
2022-08-12T20:43:42.054Z,24.86
2022-08-12T20:47:47.293Z,24.79
2022-08-12T20:52:01.638Z,24.74
2022-08-12T20:56:19.607Z,24.66
2022-08-12T21:00:28.325Z,24.62
2022-08-12T21:04:49.157Z,24.53
2022-08-12T21:09:00.084Z,24.47
2022-08-12T21:13:04.607Z,24.40
2022-08-12T21:17:33.897Z,24.34
2022-08-12T21:21:53.821Z,24.29
2022-08-12T21:26:02.052Z,24.27
2022-08-12T21:30:06.332Z,24.23
2022-08-12T21:34:11.459Z,24.22
2022-08-12T21:38:15.621Z,24.19
2022-08-12T21:42:26.283Z,24.12
2022-08-12T21:46:34.950Z,24.05
2022-08-12T21:50:40.089Z,24.00
2022-08-12T21:54:46.703Z,23.93
2022-08-12T21:58:49.914Z,23.89
2022-08-12T22:03:10.769Z,23.86
2022-08-12T22:07:18.780Z,23.84
2022-08-12T22:11:23.492Z,23.80
2022-08-12T22:15:45.618Z,23.75
2022-08-12T22:19:54.319Z,23.72
2022-08-12T22:24:05.561Z,23.66
2022-08-12T22:28:26.412Z,23.62
2022-08-12T22:32:30.103Z,23.58
2022-08-12T22:36:33.492Z,23.53
2022-08-12T22:40:37.975Z,23.47
2022-08-12T22:44:59.078Z,23.47
2022-08-12T22:49:02.377Z,23.45
2022-08-12T22:53:18.393Z,23.42
2022-08-12T22:57:23.662Z,23.40
2022-08-12T23:01:52.187Z,23.40
2022-08-12T23:06:11.230Z,23.37
2022-08-12T23:10:14.471Z,23.32
2022-08-12T23:14:24.910Z,23.27
2022-08-12T23:18:33.361Z,23.23
2022-08-12T23:22:37.412Z,23.19
2022-08-12T23:26:58.023Z,23.15
2022-08-12T23:31:04.717Z,23.10
2022-08-12T23:35:09.666Z,23.08
2022-08-12T23:40:14.607Z,23.03
2022-08-12T23:43:50.090Z,23.00
2022-08-12T23:47:55.430Z,22.92
2022-08-12T23:52:07.096Z,22.86
2022-08-12T23:56:12.316Z,22.82
